createdAt,value
2023-01-03T00:00:24.900Z,68.20
2023-01-03T00:02:51.459Z,68.40
2023-01-03T00:05:18.010Z,68.40
2023-01-03T00:07:44.515Z,68.40
2023-01-03T00:10:10.993Z,68.40
2023-01-03T00:12:37.499Z,68.20
2023-01-03T00:15:03.981Z,68.40
2023-01-03T00:17:30.478Z,68.50
2023-01-03T00:19:56.937Z,68.40
2023-01-03T00:22:23.419Z,68.50
2023-01-03T00:24:49.881Z,68.40
2023-01-03T00:27:16.404Z,68.50
2023-01-03T00:29:42.869Z,68.40
2023-01-03T00:32:09.373Z,68.20
2023-01-03T00:34:35.841Z,67.90
2023-01-03T00:37:02.308Z,68.20
2023-01-03T00:39:28.790Z,68.00
2023-01-03T00:41:55.255Z,68.00
2023-01-03T00:44:21.746Z,69.00
2023-01-03T00:46:48.226Z,68.00
2023-01-03T00:49:14.707Z,67.80
2023-01-03T00:51:41.165Z,67.90
2023-01-03T00:54:07.630Z,67.70
2023-01-03T00:56:34.120Z,67.80
2023-01-03T00:59:00.609Z,67.70
2023-01-03T01:01:27.201Z,67.90
2023-01-03T01:03:53.783Z,67.70
2023-01-03T01:06:20.290Z,67.70
2023-01-03T01:08:46.802Z,67.80
2023-01-03T01:11:13.274Z,67.90
2023-01-03T01:13:39.761Z,67.90
2023-01-03T01:16:06.278Z,67.80
2023-01-03T01:18:32.881Z,67.50
2023-01-03T01:20:59.320Z,67.60
2023-01-03T01:23:25.807Z,67.80
2023-01-03T01:25:52.279Z,67.60
2023-01-03T01:28:18.756Z,67.70
2023-01-03T01:30:45.260Z,67.40
2023-01-03T01:33:11.740Z,67.80
2023-01-03T01:35:38.219Z,67.50
2023-01-03T01:38:04.680Z,67.50
2023-01-03T01:40:31.153Z,67.60
2023-01-03T01:42:57.610Z,67.40
2023-01-03T01:45:24.094Z,67.40
2023-01-03T01:47:50.579Z,67.50
2023-01-03T01:50:17.093Z,67.60
2023-01-03T01:52:43.603Z,67.50
2023-01-03T01:55:10.124Z,67.30
2023-01-03T01:57:36.601Z,67.40
2023-01-03T02:00:03.099Z,67.30
2023-01-03T02:02:29.759Z,67.50
2023-01-03T02:04:56.434Z,67.40
2023-01-03T02:07:22.916Z,67.10
2023-01-03T02:09:49.421Z,67.10
2023-01-03T02:12:15.874Z,67.00
2023-01-03T02:14:42.363Z,67.00
2023-01-03T02:17:08.838Z,67.00
2023-01-03T02:19:35.335Z,66.90
2023-01-03T02:22:01.801Z,67.10
2023-01-03T02:24:28.290Z,67.00
2023-01-03T02:26:54.758Z,67.00
2023-01-03T02:29:21.220Z,67.20
2023-01-03T02:31:47.758Z,66.90
2023-01-03T02:34:14.271Z,67.10
2023-01-03T02:36:40.737Z,66.90
2023-01-03T02:39:07.193Z,66.80
2023-01-03T02:41:33.687Z,66.90
2023-01-03T02:44:00.176Z,66.70
2023-01-03T02:46:26.716Z,67.50
2023-01-03T02:48:53.236Z,66.70
2023-01-03T02:51:19.753Z,66.60
2023-01-03T02:53:46.213Z,66.80
2023-01-03T02:56:12.685Z,66.50
2023-01-03T02:58:39.170Z,66.80
2023-01-03T03:01:05.671Z,66.40
2023-01-03T03:03:32.225Z,66.50
2023-01-03T03:05:58.786Z,66.60
2023-01-03T03:08:25.247Z,66.90
2023-01-03T03:10:51.734Z,66.50
2023-01-03T03:13:18.207Z,66.50
2023-01-03T03:15:44.712Z,66.20
2023-01-03T03:18:11.190Z,66.40
2023-01-03T03:20:37.673Z,66.40
2023-01-03T03:23:04.167Z,66.70
2023-01-03T03:25:30.655Z,66.40
2023-01-03T03:27:57.150Z,66.40
2023-01-03T03:30:23.642Z,66.20
2023-01-03T03:32:50.094Z,66.30
2023-01-03T03:35:16.601Z,66.30
2023-01-03T03:37:43.081Z,66.50
2023-01-03T03:40:09.559Z,66.50
2023-01-03T03:42:36.037Z,66.40
2023-01-03T03:45:02.947Z,67.10
2023-01-03T03:47:29.568Z,66.20
2023-01-03T03:49:56.030Z,66.10
2023-01-03T03:52:22.499Z,66.30
2023-01-03T03:54:48.958Z,66.10
2023-01-03T03:57:15.413Z,66.30
2023-01-03T03:59:41.884Z,66.00
2023-01-03T04:02:08.468Z,66.20
2023-01-03T04:04:35.005Z,66.00
2023-01-03T04:07:01.483Z,66.00
2023-01-03T04:09:27.929Z,66.00
2023-01-03T04:11:54.418Z,66.10
2023-01-03T04:14:20.899Z,65.90
2023-01-03T04:16:47.502Z,66.00
2023-01-03T04:19:14.005Z,66.00
2023-01-03T04:21:40.474Z,66.10
2023-01-03T04:24:06.962Z,66.10
2023-01-03T04:26:33.454Z,66.00
2023-01-03T04:28:59.921Z,65.80
2023-01-03T04:31:26.486Z,66.00
2023-01-03T04:33:53.023Z,65.80
2023-01-03T04:36:19.514Z,65.60
2023-01-03T04:38:45.968Z,65.60
2023-01-03T04:41:12.445Z,65.50
2023-01-03T04:43:38.899Z,65.40
2023-01-03T04:46:05.429Z,65.20
2023-01-03T04:48:31.966Z,65.40
2023-01-03T04:50:58.459Z,65.50
2023-01-03T04:53:24.931Z,65.30
2023-01-03T04:55:51.449Z,65.50
2023-01-03T04:58:17.902Z,65.40
2023-01-03T05:00:44.464Z,65.70
2023-01-03T05:03:10.950Z,65.60
2023-01-03T05:05:37.410Z,65.50
2023-01-03T05:08:03.881Z,65.60
2023-01-03T05:10:30.349Z,66.30
2023-01-03T05:12:56.824Z,65.70
2023-01-03T05:15:23.352Z,65.40
2023-01-03T05:17:49.823Z,65.60
2023-01-03T05:20:16.281Z,65.20
2023-01-03T05:22:42.754Z,65.20
2023-01-03T05:25:09.224Z,65.40
2023-01-03T05:27:35.692Z,65.30
2023-01-03T05:30:02.155Z,65.10
2023-01-03T05:32:28.634Z,65.30
2023-01-03T05:34:55.084Z,64.90
2023-01-03T05:37:21.553Z,64.80
2023-01-03T05:39:48.012Z,65.30
2023-01-03T05:42:14.476Z,65.00
2023-01-03T05:44:40.943Z,65.20
2023-01-03T05:47:07.441Z,64.90
2023-01-03T05:49:33.920Z,65.30
2023-01-03T05:52:00.424Z,65.20
2023-01-03T05:54:26.913Z,66.00
2023-01-03T05:56:53.400Z,65.40
2023-01-03T05:59:19.866Z,65.30
2023-01-03T06:01:46.421Z,65.50
2023-01-03T06:04:13.074Z,65.30
2023-01-03T06:06:39.620Z,65.30
2023-01-03T06:09:06.087Z,65.30
2023-01-03T06:11:32.575Z,65.20
2023-01-03T06:13:59.038Z,65.90
2023-01-03T06:16:25.590Z,64.90
2023-01-03T06:18:52.076Z,64.90
2023-01-03T06:21:18.549Z,65.00
2023-01-03T06:23:45.022Z,64.90
2023-01-03T06:26:11.462Z,65.10
2023-01-03T06:28:37.941Z,65.20
2023-01-03T06:31:04.486Z,65.20
2023-01-03T06:33:30.989Z,65.10
2023-01-03T06:35:57.434Z,65.10
2023-01-03T06:38:23.928Z,65.20
2023-01-03T06:40:50.405Z,65.10
2023-01-03T06:43:16.896Z,65.10
2023-01-03T06:45:43.420Z,65.10
2023-01-03T06:48:09.947Z,64.90
2023-01-03T06:50:36.408Z,65.00
2023-01-03T06:53:02.889Z,65.00
2023-01-03T06:55:29.372Z,64.90
2023-01-03T06:57:55.865Z,64.80
2023-01-03T07:00:22.317Z,64.80
2023-01-03T07:02:48.982Z,64.80
2023-01-03T07:05:15.552Z,64.90
2023-01-03T07:07:42.039Z,64.90
2023-01-03T07:10:08.513Z,64.90
2023-01-03T07:12:35.000Z,64.90
2023-01-03T07:15:01.471Z,64.90
2023-01-03T07:17:27.939Z,64.90
2023-01-03T07:19:54.424Z,64.80
2023-01-03T07:22:20.891Z,64.80
2023-01-03T07:24:47.367Z,64.90
2023-01-03T07:27:13.841Z,65.00
2023-01-03T07:29:40.306Z,65.00
2023-01-03T07:32:06.760Z,64.90
2023-01-03T07:34:33.226Z,64.90
2023-01-03T07:36:59.696Z,64.90
2023-01-03T07:39:26.159Z,65.00
2023-01-03T07:41:52.613Z,64.90
2023-01-03T07:44:19.080Z,64.90
2023-01-03T07:46:45.577Z,64.70
2023-01-03T07:49:12.585Z,64.70
2023-01-03T07:51:39.176Z,64.50
2023-01-03T07:54:05.650Z,64.60
2023-01-03T07:56:32.139Z,64.40
2023-01-03T07:58:58.634Z,64.70
2023-01-03T08:01:25.247Z,64.60
2023-01-03T08:03:51.839Z,64.70
2023-01-03T08:06:18.301Z,64.70
2023-01-03T08:08:44.829Z,64.60
2023-01-03T08:11:11.294Z,64.50
2023-01-03T08:13:37.754Z,64.30
2023-01-03T08:16:04.271Z,64.50
2023-01-03T08:18:30.844Z,64.50
2023-01-03T08:20:57.392Z,64.30
2023-01-03T08:23:23.913Z,64.40
2023-01-03T08:25:50.412Z,64.40
2023-01-03T08:28:16.865Z,64.40
2023-01-03T08:30:43.336Z,64.50
2023-01-03T08:33:09.788Z,64.30
2023-01-03T08:35:36.260Z,64.30
2023-01-03T08:38:02.720Z,65.10
2023-01-03T08:40:29.193Z,64.50
2023-01-03T08:42:55.663Z,64.70
2023-01-03T08:45:22.157Z,64.50
2023-01-03T08:47:48.626Z,64.70
2023-01-03T08:50:15.110Z,64.70
2023-01-03T08:52:41.573Z,64.60
2023-01-03T08:55:08.058Z,64.70
2023-01-03T08:57:34.551Z,64.50
2023-01-03T09:00:01.100Z,64.60
2023-01-03T09:02:27.834Z,64.50
2023-01-03T09:04:54.562Z,64.60
2023-01-03T09:07:21.045Z,64.50
2023-01-03T09:09:47.549Z,64.50
2023-01-03T09:12:14.008Z,64.40
2023-01-03T09:14:40.481Z,64.70
2023-01-03T09:17:06.978Z,64.80
2023-01-03T09:19:33.457Z,64.90
2023-01-03T09:21:59.919Z,64.80
2023-01-03T09:24:26.397Z,64.80
2023-01-03T09:26:55.045Z,64.70
2023-01-03T09:29:21.742Z,64.70
2023-01-03T09:31:48.304Z,64.80
2023-01-03T09:34:14.813Z,64.70
2023-01-03T09:36:41.267Z,64.50
2023-01-03T09:39:07.727Z,64.60
2023-01-03T09:41:34.218Z,65.50
2023-01-03T09:44:00.684Z,64.60
2023-01-03T09:46:27.174Z,64.50
2023-01-03T09:48:53.665Z,64.60
2023-01-03T09:51:25.829Z,64.60
2023-01-03T09:53:55.826Z,64.70
2023-01-03T09:56:22.289Z,64.70
2023-01-03T09:58:48.738Z,64.50
2023-01-03T10:01:15.269Z,64.70
2023-01-03T10:03:46.535Z,65.30
2023-01-03T10:06:17.224Z,64.50
2023-01-03T10:08:43.701Z,64.60
2023-01-03T10:11:10.170Z,64.70
2023-01-03T10:13:36.666Z,64.50
2023-01-03T10:16:03.164Z,64.50
2023-01-03T10:18:29.670Z,64.30
2023-01-03T10:20:56.153Z,64.50
2023-01-03T10:23:22.658Z,64.70
2023-01-03T10:25:49.130Z,64.50
2023-01-03T10:28:15.623Z,64.60
2023-01-03T10:30:42.089Z,64.40
2023-01-03T10:33:08.561Z,64.20
2023-01-03T10:35:35.015Z,64.30
2023-01-03T10:38:01.475Z,64.70
2023-01-03T10:40:29.075Z,64.50
2023-01-03T10:42:55.556Z,64.50
2023-01-03T10:45:22.064Z,64.70
2023-01-03T10:47:48.520Z,64.70
2023-01-03T10:50:14.981Z,64.80
2023-01-03T10:52:41.499Z,64.50
2023-01-03T10:55:07.966Z,64.50
2023-01-03T10:57:34.444Z,64.80
2023-01-03T11:00:00.924Z,64.50
2023-01-03T11:02:27.563Z,64.60
2023-01-03T11:04:54.190Z,64.40
2023-01-03T11:07:20.668Z,64.30
2023-01-03T11:09:50.968Z,64.80
2023-01-03T11:12:18.257Z,64.90
2023-01-03T11:14:44.731Z,64.60
2023-01-03T11:17:11.248Z,64.90
2023-01-03T11:19:37.732Z,64.80
2023-01-03T11:22:04.227Z,64.90
2023-01-03T11:24:30.743Z,64.80
2023-01-03T11:26:57.216Z,64.70
2023-01-03T11:29:23.722Z,64.60
2023-01-03T11:31:50.252Z,64.80
2023-01-03T11:34:16.718Z,64.80
2023-01-03T11:36:43.185Z,64.70
2023-01-03T11:39:14.783Z,64.70
2023-01-03T11:41:42.745Z,64.80
2023-01-03T11:44:09.206Z,64.60
2023-01-03T11:46:35.760Z,64.90
2023-01-03T11:49:02.273Z,64.80
2023-01-03T11:51:28.752Z,64.80
2023-01-03T11:53:55.218Z,64.80
2023-01-03T11:56:21.690Z,64.70
2023-01-03T11:58:48.164Z,64.90
2023-01-03T12:01:14.713Z,65.00
2023-01-03T12:03:41.300Z,65.20
2023-01-03T12:06:07.979Z,65.00
2023-01-03T12:08:34.532Z,65.20
2023-01-03T12:11:01.038Z,65.30
2023-01-03T12:13:29.810Z,65.20
2023-01-03T12:15:56.667Z,65.10
2023-01-03T12:18:23.200Z,64.90
2023-01-03T12:20:49.678Z,64.90
2023-01-03T12:23:16.150Z,64.90
2023-01-03T12:25:42.616Z,64.80
2023-01-03T12:28:09.113Z,65.20
2023-01-03T12:30:35.565Z,65.30
2023-01-03T12:33:02.099Z,65.20
2023-01-03T12:35:28.615Z,65.00
2023-01-03T12:37:55.107Z,65.20
2023-01-03T12:40:21.570Z,65.40
2023-01-03T12:42:48.046Z,65.00
2023-01-03T12:45:14.528Z,64.90
2023-01-03T12:47:41.004Z,64.80
2023-01-03T12:50:07.478Z,64.80
2023-01-03T12:52:33.957Z,64.80
2023-01-03T12:55:00.428Z,64.70
2023-01-03T12:57:26.910Z,64.60
2023-01-03T12:59:53.361Z,64.80
2023-01-03T13:02:20.015Z,64.90
2023-01-03T13:04:46.564Z,64.80
2023-01-03T13:07:13.036Z,64.80
2023-01-03T13:09:39.497Z,64.90
2023-01-03T13:12:05.977Z,64.80
2023-01-03T13:14:32.422Z,64.80
2023-01-03T13:16:58.892Z,64.70
2023-01-03T13:19:25.383Z,64.80
2023-01-03T13:21:51.853Z,64.80
2023-01-03T13:24:18.326Z,64.90
2023-01-03T13:26:51.397Z,64.70
2023-01-03T13:29:18.123Z,64.40
2023-01-03T13:31:44.637Z,64.70
2023-01-03T13:34:11.122Z,64.40
2023-01-03T13:36:37.586Z,63.90
2023-01-03T13:39:04.062Z,63.90
2023-01-03T13:41:36.496Z,64.40
2023-01-03T13:44:02.976Z,64.10
2023-01-03T13:46:29.542Z,64.00
2023-01-03T13:48:56.087Z,64.50
2023-01-03T13:51:22.524Z,64.40
2023-01-03T13:53:49.004Z,63.80
2023-01-03T13:56:15.497Z,63.60
2023-01-03T13:58:41.984Z,63.20
2023-01-03T14:01:08.468Z,63.40
2023-01-03T14:03:35.135Z,63.40
2023-01-03T14:06:01.746Z,63.80
2023-01-03T14:08:35.011Z,63.60
2023-01-03T14:11:01.939Z,63.60
2023-01-03T14:13:28.406Z,63.60
2023-01-03T14:15:54.914Z,63.70
2023-01-03T14:18:21.468Z,63.50
2023-01-03T14:20:47.936Z,63.80
2023-01-03T14:23:57.887Z,64.10
2023-01-03T14:26:00.863Z,63.80
2023-01-03T14:28:27.340Z,63.70
2023-01-03T14:30:53.881Z,63.60
2023-01-03T14:33:20.401Z,63.50
2023-01-03T14:35:46.887Z,63.30
2023-01-03T14:38:13.357Z,62.90
2023-01-03T14:40:39.831Z,63.10
2023-01-03T14:43:06.276Z,63.00
2023-01-03T14:45:32.760Z,63.50
2023-01-03T14:47:59.235Z,63.10
2023-01-03T14:50:25.734Z,62.80
2023-01-03T14:52:52.216Z,62.60
2023-01-03T14:55:18.713Z,62.90
2023-01-03T14:57:45.162Z,63.00
2023-01-03T15:00:11.631Z,63.10
2023-01-03T15:02:38.220Z,63.70
2023-01-03T15:05:04.840Z,62.90
2023-01-03T15:07:31.301Z,63.00
2023-01-03T15:09:57.764Z,63.20
2023-01-03T15:12:24.221Z,63.10
2023-01-03T15:14:50.691Z,62.80
2023-01-03T15:17:17.171Z,63.00
2023-01-03T15:19:43.664Z,63.10
2023-01-03T15:22:10.139Z,63.10
2023-01-03T15:24:42.674Z,63.00
2023-01-03T15:27:09.603Z,63.20
2023-01-03T15:29:36.107Z,63.20
2023-01-03T15:32:02.644Z,62.90
2023-01-03T15:34:29.174Z,63.20
2023-01-03T15:36:55.669Z,63.40
2023-01-03T15:39:22.137Z,63.30
2023-01-03T15:41:49.077Z,63.40
2023-01-03T15:44:16.935Z,63.30
2023-01-03T15:46:43.405Z,63.00
2023-01-03T15:49:09.872Z,63.10
2023-01-03T15:51:36.324Z,63.20
2023-01-03T15:54:02.774Z,63.20
2023-01-03T15:56:29.243Z,63.20
2023-01-03T15:58:55.711Z,62.90
2023-01-03T16:01:22.289Z,63.00
2023-01-03T16:03:48.888Z,63.20
2023-01-03T16:06:15.456Z,63.20
2023-01-03T16:08:41.935Z,63.20
2023-01-03T16:11:08.398Z,63.00
2023-01-03T16:13:34.856Z,63.30
2023-01-03T16:16:01.333Z,63.20
2023-01-03T16:18:27.804Z,62.90
2023-01-03T16:20:54.273Z,62.70
2023-01-03T16:23:20.744Z,62.90
2023-01-03T16:25:47.213Z,63.20
2023-01-03T16:28:13.667Z,63.00
2023-01-03T16:30:40.124Z,62.70
2023-01-03T16:33:06.596Z,62.90
2023-01-03T16:35:33.069Z,62.80
2023-01-03T16:37:59.539Z,62.90
2023-01-03T16:40:26.027Z,62.90
2023-01-03T16:42:52.498Z,62.90
2023-01-03T16:45:18.980Z,62.70
2023-01-03T16:47:45.450Z,63.00
2023-01-03T16:50:11.946Z,63.00
2023-01-03T16:52:38.413Z,62.50
2023-01-03T16:55:04.888Z,62.70
2023-01-03T16:57:31.370Z,62.90
2023-01-03T16:59:57.908Z,63.10
2023-01-03T17:02:24.596Z,62.90
2023-01-03T17:04:51.359Z,62.80
2023-01-03T17:07:17.834Z,62.70
2023-01-03T17:09:44.291Z,62.70
2023-01-03T17:12:10.752Z,62.60
2023-01-03T17:14:37.241Z,62.70
2023-01-03T17:17:03.725Z,62.70
2023-01-03T17:22:16.673Z,63.00
2023-01-03T17:24:43.139Z,62.70
2023-01-03T17:27:09.615Z,62.80
2023-01-03T17:29:36.074Z,62.70
2023-01-03T17:32:02.570Z,62.50
2023-01-03T17:34:29.050Z,62.90
2023-01-03T17:36:55.512Z,62.60
2023-01-03T17:39:21.978Z,62.60
2023-01-03T17:41:48.451Z,62.40
2023-01-03T17:44:14.935Z,62.80
2023-01-03T17:46:41.535Z,62.50
2023-01-03T17:49:08.040Z,62.50
2023-01-03T17:51:34.529Z,62.50
2023-01-03T17:54:00.993Z,62.80
2023-01-03T17:56:27.450Z,62.70
2023-01-03T17:58:56.178Z,62.60
2023-01-03T18:01:23.279Z,62.00
2023-01-03T18:03:49.968Z,62.20
2023-01-03T18:06:16.595Z,62.70
2023-01-03T18:08:43.085Z,62.90
2023-01-03T18:11:09.531Z,62.50
2023-01-03T18:13:35.978Z,62.60
2023-01-03T18:16:02.579Z,62.50
2023-01-03T18:18:29.271Z,62.60
2023-01-03T18:20:55.786Z,62.60
2023-01-03T18:23:22.276Z,62.30
2023-01-03T18:25:48.751Z,62.50
2023-01-03T18:28:15.223Z,62.10
2023-01-03T18:30:41.686Z,62.50
2023-01-03T18:33:08.158Z,62.40
2023-01-03T18:35:38.118Z,62.50
2023-01-03T18:38:04.986Z,62.40
2023-01-03T18:40:31.484Z,62.50
2023-01-03T18:42:57.988Z,62.30
2023-01-03T18:45:24.449Z,62.40
2023-01-03T18:47:50.907Z,62.30
2023-01-03T18:50:17.384Z,62.30
2023-01-03T18:52:43.866Z,62.30
2023-01-03T18:55:10.364Z,62.30
2023-01-03T18:57:36.824Z,62.10
2023-01-03T19:00:03.302Z,62.10
2023-01-03T19:02:29.914Z,62.30
2023-01-03T19:04:56.566Z,62.20
2023-01-03T19:07:23.033Z,62.20
2023-01-03T19:09:49.508Z,62.20
2023-01-03T19:12:15.975Z,62.00
2023-01-03T19:14:46.625Z,62.20
2023-01-03T19:17:13.367Z,62.30
2023-01-03T19:19:39.840Z,62.30
2023-01-03T19:22:06.309Z,62.30
2023-01-03T19:24:38.138Z,62.30
2023-01-03T19:27:05.622Z,62.40
2023-01-03T19:29:32.114Z,62.40
2023-01-03T19:31:58.586Z,62.40
2023-01-03T19:34:25.061Z,62.10
2023-01-03T19:36:51.554Z,62.30
2023-01-03T19:39:24.013Z,62.20
2023-01-03T19:41:51.491Z,62.20
2023-01-03T19:44:17.969Z,62.40
2023-01-03T19:46:44.470Z,62.30
2023-01-03T19:49:10.999Z,62.20
2023-01-03T19:51:37.469Z,62.20
2023-01-03T19:54:03.935Z,62.30
2023-01-03T19:56:30.400Z,62.50
2023-01-03T19:59:02.928Z,63.10
2023-01-03T20:01:38.699Z,62.40
2023-01-03T20:04:16.475Z,62.20
2023-01-03T20:06:43.139Z,62.20
2023-01-03T20:09:09.599Z,62.20
2023-01-03T20:11:36.062Z,62.10
2023-01-03T20:14:02.517Z,62.20
2023-01-03T20:16:28.997Z,62.10
2023-01-03T20:18:55.467Z,62.10
2023-01-03T20:21:23.315Z,62.20
2023-01-03T20:23:49.989Z,62.10
2023-01-03T20:26:16.471Z,62.20
2023-01-03T20:28:42.951Z,62.30
2023-01-03T20:31:09.488Z,62.20
2023-01-03T20:33:36.036Z,62.90
2023-01-03T20:36:17.568Z,62.30
2023-01-03T20:38:46.375Z,62.20
2023-01-03T20:41:12.830Z,62.10
2023-01-03T20:43:39.300Z,62.10
2023-01-03T20:46:05.882Z,62.10
2023-01-03T20:48:32.396Z,62.10
2023-01-03T20:50:58.858Z,62.10
2023-01-03T20:53:25.337Z,62.10
2023-01-03T20:55:51.859Z,62.00
2023-01-03T20:58:18.385Z,62.10
2023-01-03T21:00:44.931Z,62.10
2023-01-03T21:03:11.577Z,62.00
2023-01-03T21:05:38.139Z,61.70
2023-01-03T21:08:04.620Z,62.30
2023-01-03T21:10:31.132Z,62.10
2023-01-03T21:12:57.589Z,62.90
2023-01-03T21:15:24.203Z,61.90
2023-01-03T21:17:51.312Z,61.90
2023-01-03T21:20:17.984Z,62.00
2023-01-03T21:22:44.467Z,61.60
2023-01-03T21:25:10.963Z,61.80
2023-01-03T21:27:37.435Z,61.50
2023-01-03T21:30:03.920Z,61.90
2023-01-03T21:32:30.388Z,61.80
2023-01-03T21:34:56.858Z,61.60
2023-01-03T21:37:23.325Z,61.70
2023-01-03T21:39:49.793Z,61.80
2023-01-03T21:42:16.273Z,62.10
2023-01-03T21:44:42.741Z,61.90
2023-01-03T21:47:09.197Z,62.10
2023-01-03T21:49:35.651Z,62.00
2023-01-03T21:52:02.111Z,61.90
2023-01-03T21:54:28.630Z,61.80
2023-01-03T21:56:55.157Z,61.70
2023-01-03T21:59:21.634Z,61.90
2023-01-03T22:01:48.235Z,61.70
2023-01-03T22:04:14.718Z,61.60
2023-01-03T22:06:41.221Z,61.20
2023-01-03T22:09:07.687Z,61.90
2023-01-03T22:11:34.178Z,62.00
2023-01-03T22:14:00.648Z,62.00
2023-01-03T22:16:27.189Z,61.70
2023-01-03T22:18:53.668Z,61.80
2023-01-03T22:21:20.201Z,61.90
2023-01-03T22:23:46.696Z,61.70
2023-01-03T22:26:13.187Z,61.70
2023-01-03T22:28:39.651Z,61.40
2023-01-03T22:31:06.146Z,61.40
2023-01-03T22:33:32.607Z,61.40
2023-01-03T22:35:59.102Z,61.30
2023-01-03T22:38:25.559Z,61.60
2023-01-03T22:40:52.049Z,61.60
2023-01-03T22:43:18.535Z,61.70
2023-01-03T22:45:45.068Z,61.60
2023-01-03T22:48:11.579Z,61.70
2023-01-03T22:50:38.106Z,61.60
2023-01-03T22:53:04.611Z,61.60
2023-01-03T22:55:32.341Z,61.40
2023-01-03T22:57:59.026Z,61.60
2023-01-03T23:00:25.488Z,61.60
2023-01-03T23:02:52.014Z,61.50
2023-01-03T23:05:18.535Z,61.30
2023-01-03T23:07:44.996Z,61.40
2023-01-03T23:10:11.425Z,61.60
2023-01-03T23:12:37.895Z,61.40
2023-01-03T23:15:04.376Z,61.50
2023-01-03T23:17:30.858Z,61.40
2023-01-03T23:19:57.311Z,61.10
2023-01-03T23:22:23.785Z,61.10
2023-01-03T23:24:50.277Z,61.20
2023-01-03T23:27:16.758Z,61.20
2023-01-03T23:29:43.248Z,61.30
2023-01-03T23:32:09.738Z,61.60
2023-01-03T23:34:36.210Z,61.80
2023-01-03T23:37:02.670Z,61.30
2023-01-03T23:39:29.151Z,61.10
2023-01-03T23:41:55.616Z,61.40
2023-01-03T23:44:22.065Z,61.20
2023-01-03T23:46:48.529Z,61.40
2023-01-03T23:49:14.994Z,61.20
2023-01-03T23:51:41.467Z,61.30
2023-01-03T23:54:07.921Z,61.00
2023-01-03T23:56:34.394Z,61.30
2023-01-03T23:59:00.842Z,61.20
